createdAt,value
2018-08-11T00:00:35.764Z,60.7
2018-08-11T00:01:35.693Z,60.17
2018-08-11T00:02:35.748Z,60.59
2018-08-11T00:03:35.799Z,60.3
2018-08-11T00:04:35.785Z,59.77
2018-08-11T00:05:35.690Z,60.74
2018-08-11T00:06:35.716Z,59.86
2018-08-11T00:07:35.955Z,60.15
2018-08-11T00:08:35.864Z,60.06
2018-08-11T00:09:35.888Z,59.91
2018-08-11T00:10:35.693Z,59.9
2018-08-11T00:11:35.708Z,60.12
2018-08-11T00:12:35.826Z,60
2018-08-11T00:13:35.885Z,59.82
2018-08-11T00:14:35.687Z,59.9
2018-08-11T00:15:35.720Z,59.95
2018-08-11T00:16:35.717Z,60.62
2018-08-11T00:17:35.712Z,60.86
2018-08-11T00:18:35.719Z,60.39
2018-08-11T00:19:35.854Z,60.83
2018-08-11T00:20:36.021Z,60.51
2018-08-11T00:21:35.746Z,60.83
2018-08-11T00:22:35.774Z,61.01
2018-08-11T00:23:35.731Z,60.56
2018-08-11T00:24:35.726Z,61.34
2018-08-11T00:25:35.747Z,61.33
2018-08-11T00:26:35.698Z,61.14
2018-08-11T00:27:35.723Z,60.94
2018-08-11T00:28:35.798Z,60.51
2018-08-11T00:29:35.798Z,60.87
2018-08-11T00:30:35.785Z,60.76
2018-08-11T00:31:35.679Z,60.53
2018-08-11T00:32:35.665Z,61.67
2018-08-11T00:33:35.736Z,61.17
2018-08-11T00:34:35.723Z,61.47
2018-08-11T00:35:35.708Z,61.61
2018-08-11T00:36:36.054Z,61.53
2018-08-11T00:37:35.722Z,61.66
2018-08-11T00:38:35.772Z,61.39
2018-08-11T00:39:35.702Z,61.37
2018-08-11T00:40:35.777Z,61.17
2018-08-11T00:41:35.859Z,61.22
2018-08-11T00:42:35.703Z,61.16
2018-08-11T00:43:35.907Z,61.17
2018-08-11T00:44:35.742Z,61.84
2018-08-11T00:45:35.662Z,61.75
2018-08-11T00:46:35.800Z,61.49
2018-08-11T00:47:35.713Z,61.61
2018-08-11T00:48:35.662Z,62.31
2018-08-11T00:49:36.354Z,62.15
2018-08-11T00:50:35.677Z,61.88
2018-08-11T00:51:35.727Z,61.97
2018-08-11T00:52:35.713Z,61.95
2018-08-11T00:53:35.712Z,62.12
2018-08-11T00:54:35.676Z,62.1
2018-08-11T00:55:35.723Z,62.23
2018-08-11T00:56:35.705Z,61.79
2018-08-11T00:57:35.710Z,62.02
2018-08-11T00:58:35.671Z,61.76
2018-08-11T00:59:35.663Z,62.41
2018-08-11T01:00:35.683Z,61.83
2018-08-11T01:01:35.709Z,61.77
2018-08-11T01:02:35.705Z,61.5
2018-08-11T01:03:35.712Z,62.08
2018-08-11T01:04:35.672Z,61.72
2018-08-11T01:05:35.677Z,62.92
2018-08-11T01:06:35.668Z,62.46
2018-08-11T01:07:35.704Z,62.37
2018-08-11T01:08:35.700Z,61.71
2018-08-11T01:09:35.687Z,62.66
2018-08-11T01:10:35.699Z,63.22
2018-08-11T01:11:35.809Z,62.69
2018-08-11T01:12:35.675Z,62.38
2018-08-11T01:13:35.716Z,62.05
2018-08-11T01:14:35.786Z,62.63
2018-08-11T01:15:36.025Z,62.8
2018-08-11T01:16:35.733Z,62.4
2018-08-11T01:17:35.843Z,62.03
2018-08-11T01:18:35.890Z,61.78
2018-08-11T01:19:35.794Z,62.44
2018-08-11T01:20:35.769Z,62.47
2018-08-11T01:21:35.706Z,62.11
2018-08-11T01:22:35.832Z,62.78
2018-08-11T01:23:35.800Z,63.02
2018-08-11T01:24:35.809Z,62.96
2018-08-11T01:25:35.714Z,62.69
2018-08-11T01:26:35.701Z,62.67
2018-08-11T01:27:35.844Z,62.5
2018-08-11T01:28:35.674Z,62.24
2018-08-11T01:29:35.758Z,62.14
2018-08-11T01:30:35.835Z,61.85
2018-08-11T01:31:35.779Z,62.17
2018-08-11T01:32:36.099Z,61.99
2018-08-11T01:33:35.715Z,61.89
2018-08-11T01:34:35.859Z,62.17
2018-08-11T01:35:35.858Z,62.26
2018-08-11T01:36:35.763Z,62.05
2018-08-11T01:37:35.706Z,62.41
2018-08-11T01:38:36.091Z,61.61
2018-08-11T01:39:35.669Z,62.06
2018-08-11T01:40:35.695Z,61.94
2018-08-11T01:41:35.702Z,61.92
2018-08-11T01:42:35.717Z,61.91
2018-08-11T01:43:35.736Z,61.98
2018-08-11T01:44:35.701Z,62.29
2018-08-11T01:45:35.729Z,61.79
2018-08-11T01:46:35.727Z,61.55
2018-08-11T01:47:35.746Z,61.75
2018-08-11T01:48:35.718Z,61.86
2018-08-11T01:49:35.682Z,61.81
2018-08-11T01:50:36.016Z,61.52
2018-08-11T01:51:35.708Z,61.61
2018-08-11T01:52:35.708Z,61.63
2018-08-11T01:53:35.750Z,61.9
2018-08-11T01:54:35.837Z,61.54
2018-08-11T01:55:35.708Z,61.82
2018-08-11T01:56:35.805Z,61.25
2018-08-11T01:57:35.680Z,61.49
2018-08-11T01:58:35.999Z,61.43
2018-08-11T01:59:35.660Z,61.95
2018-08-11T02:00:35.823Z,61.36
2018-08-11T02:01:35.698Z,61.1
2018-08-11T02:02:35.692Z,61.17
2018-08-11T02:03:35.762Z,61.09
2018-08-11T02:04:36.160Z,61.05
2018-08-11T02:05:35.723Z,60.96
2018-08-11T02:06:35.728Z,61.33
2018-08-11T02:07:35.743Z,61.24
2018-08-11T02:08:35.662Z,60.84
2018-08-11T02:09:35.692Z,60.9
2018-08-11T02:10:35.735Z,60.85
2018-08-11T02:11:35.696Z,60.89
2018-08-11T02:12:35.674Z,60.95
2018-08-11T02:13:35.749Z,60.9
2018-08-11T02:14:35.693Z,60.93
2018-08-11T02:15:35.693Z,60.85
2018-08-11T02:16:35.684Z,60.73
2018-08-11T02:17:35.991Z,60.71
2018-08-11T02:18:35.779Z,60.71
2018-08-11T02:19:35.683Z,60.74
2018-08-11T02:20:35.704Z,60.61
2018-08-11T02:21:35.702Z,60.95
2018-08-11T02:22:35.747Z,61.14
2018-08-11T02:23:35.800Z,60.83
2018-08-11T02:24:35.855Z,60.95
2018-08-11T02:25:35.713Z,60.58
2018-08-11T02:26:35.770Z,60.56
2018-08-11T02:27:35.666Z,60.89
2018-08-11T02:28:35.730Z,60.81
2018-08-11T02:29:35.809Z,60.84
2018-08-11T02:30:35.694Z,61.3
2018-08-11T02:31:35.708Z,61.04
2018-08-11T02:32:35.714Z,61.03
2018-08-11T02:33:35.818Z,60.81
2018-08-11T02:34:35.838Z,61.02
2018-08-11T02:35:35.900Z,60.78
2018-08-11T02:36:35.729Z,61.22
2018-08-11T02:37:35.707Z,61.74
2018-08-11T02:38:35.747Z,61.34
2018-08-11T02:39:35.897Z,61.83
2018-08-11T02:40:35.652Z,61.86
2018-08-11T02:41:35.780Z,62.13
2018-08-11T02:42:35.833Z,61.91
2018-08-11T02:43:35.952Z,62.44
2018-08-11T02:44:35.812Z,61.88
2018-08-11T02:45:35.829Z,62.62
2018-08-11T02:46:35.800Z,62.14
2018-08-11T02:47:35.784Z,62.84
2018-08-11T02:48:35.793Z,62.46
2018-08-11T02:49:35.880Z,63.39
2018-08-11T02:50:35.883Z,63.11
2018-08-11T02:51:35.705Z,64.04
2018-08-11T02:52:35.748Z,63.74
2018-08-11T02:53:35.951Z,63.18
2018-08-11T02:54:35.727Z,62.94
2018-08-11T02:55:35.835Z,63.08
2018-08-11T02:56:35.740Z,63.47
2018-08-11T02:57:35.819Z,63.12
2018-08-11T02:58:35.930Z,63.38
2018-08-11T02:59:35.804Z,63.18
2018-08-11T03:00:35.728Z,63.29
2018-08-11T03:01:35.713Z,63.78
2018-08-11T03:02:36.641Z,64.21
2018-08-11T03:03:35.806Z,63.64
2018-08-11T03:04:35.711Z,63.28
2018-08-11T03:05:35.683Z,63.43
2018-08-11T03:06:35.846Z,63.55
2018-08-11T03:07:35.736Z,64.36
2018-08-11T03:08:35.856Z,63.87
2018-08-11T03:09:35.700Z,63.93
2018-08-11T03:10:35.841Z,64.25
2018-08-11T03:11:35.709Z,64.42
2018-08-11T03:12:35.687Z,64.41
2018-08-11T03:13:35.790Z,64.82
2018-08-11T03:14:35.703Z,64.32
2018-08-11T03:15:35.764Z,63.96
2018-08-11T03:16:35.789Z,64.14
2018-08-11T03:17:35.712Z,64.64
2018-08-11T03:18:35.733Z,64.99
2018-08-11T03:19:35.731Z,64.86
2018-08-11T03:20:35.700Z,64.75
2018-08-11T03:21:35.767Z,64.02
2018-08-11T03:22:35.782Z,64.58
2018-08-11T03:23:35.693Z,64.24
2018-08-11T03:24:35.693Z,64.5
2018-08-11T03:25:35.651Z,64.54
2018-08-11T03:26:35.700Z,64.63
2018-08-11T03:27:35.686Z,64.49
2018-08-11T03:28:35.648Z,64.35
2018-08-11T03:29:35.769Z,64.16
2018-08-11T03:30:35.701Z,63.99
2018-08-11T03:31:35.708Z,64.54
2018-08-11T03:32:35.731Z,63.83
2018-08-11T03:33:35.703Z,63.87
2018-08-11T03:34:35.695Z,63.6
2018-08-11T03:35:35.670Z,63.51
2018-08-11T03:36:35.698Z,63.57
2018-08-11T03:37:35.683Z,63.45
2018-08-11T03:38:35.691Z,63.69
2018-08-11T03:39:35.646Z,63.35
2018-08-11T03:40:35.905Z,63.4
2018-08-11T03:41:35.677Z,63.78
2018-08-11T03:42:35.675Z,63.62
2018-08-11T03:43:35.732Z,63.39
2018-08-11T03:44:35.708Z,63.29
2018-08-11T03:45:35.806Z,63.12
2018-08-11T03:46:35.805Z,63.11
2018-08-11T03:47:35.707Z,63.03
2018-08-11T03:48:35.677Z,63.04
2018-08-11T03:49:35.702Z,63.07
2018-08-11T03:50:35.847Z,62.76
2018-08-11T03:51:35.646Z,62.44
2018-08-11T03:52:36.283Z,62.8
2018-08-11T03:53:35.729Z,62.65
2018-08-11T03:54:35.740Z,62.67
2018-08-11T03:55:35.732Z,62.51
2018-08-11T03:56:35.685Z,62.42
2018-08-11T03:57:35.733Z,62.1
2018-08-11T03:58:35.897Z,62.58
2018-08-11T03:59:35.689Z,62.28
2018-08-11T04:00:35.744Z,62.2
2018-08-11T04:01:35.865Z,62.06
2018-08-11T04:02:35.757Z,62.02
2018-08-11T04:03:35.728Z,61.97
2018-08-11T04:04:35.711Z,62.03
2018-08-11T04:05:35.696Z,62.43
2018-08-11T04:06:36.047Z,62.2
2018-08-11T04:07:35.701Z,61.85
2018-08-11T04:08:35.704Z,62.4
2018-08-11T04:09:35.824Z,62.17
2018-08-11T04:10:35.694Z,62.07
2018-08-11T04:11:35.701Z,61.77
2018-08-11T04:12:35.783Z,61.84
2018-08-11T04:13:35.691Z,61.5
2018-08-11T04:14:35.673Z,61.38
2018-08-11T04:15:35.838Z,61.74
2018-08-11T04:16:35.686Z,61.71
2018-08-11T04:17:35.691Z,61.86
2018-08-11T04:18:35.895Z,62.01
2018-08-11T04:19:35.700Z,62.16
2018-08-11T04:20:35.733Z,61.89
2018-08-11T04:21:35.806Z,61.95
2018-08-11T04:22:35.663Z,62.05
2018-08-11T04:23:35.695Z,62.37
2018-08-11T04:24:35.704Z,62.05
2018-08-11T04:25:35.815Z,62.03
2018-08-11T04:26:35.739Z,61.94
2018-08-11T04:27:35.693Z,62.29
2018-08-11T04:28:35.687Z,62.01
2018-08-11T04:29:35.736Z,62.28
2018-08-11T04:30:35.689Z,62.02
2018-08-11T04:31:35.675Z,62.23
2018-08-11T04:32:35.761Z,62.6
2018-08-11T04:33:35.763Z,62.46
2018-08-11T04:34:35.705Z,62.22
2018-08-11T04:35:35.740Z,62.19
2018-08-11T04:36:35.700Z,62.38
2018-08-11T04:37:35.666Z,62.27
2018-08-11T04:38:35.706Z,62.36
2018-08-11T04:39:35.711Z,62.39
2018-08-11T04:40:35.671Z,62.09
2018-08-11T04:41:35.667Z,62.03
2018-08-11T04:42:35.766Z,62.04
2018-08-11T04:43:35.682Z,61.75
2018-08-11T04:44:35.675Z,62.46
2018-08-11T04:45:35.674Z,62.31
2018-08-11T04:46:35.677Z,62.14
2018-08-11T04:47:35.689Z,62.36
2018-08-11T04:48:35.669Z,62.2
2018-08-11T04:49:35.700Z,62.28
2018-08-11T04:50:35.677Z,62.26
2018-08-11T04:51:35.670Z,62.18
2018-08-11T04:52:35.692Z,61.93
2018-08-11T04:53:35.725Z,62.21
2018-08-11T04:54:35.829Z,62.13
2018-08-11T04:55:35.682Z,62.2
2018-08-11T04:56:36.339Z,62.04
2018-08-11T04:57:35.669Z,62.05
2018-08-11T04:58:35.680Z,62.27
2018-08-11T04:59:35.863Z,62.32
2018-08-11T05:00:35.668Z,62.54
2018-08-11T05:01:35.680Z,62.51
2018-08-11T05:02:35.688Z,62.96
2018-08-11T05:03:35.857Z,62.43
2018-08-11T05:04:35.810Z,63.14
2018-08-11T05:05:36.505Z,63.03
2018-08-11T05:06:35.696Z,62.87
2018-08-11T05:07:35.693Z,63.13
2018-08-11T05:08:35.716Z,62.67
2018-08-11T05:09:35.792Z,62.63
2018-08-11T05:10:35.840Z,62.31
2018-08-11T05:11:35.725Z,62.12
2018-08-11T05:12:35.655Z,62.23
2018-08-11T05:13:35.766Z,62.07
2018-08-11T05:14:35.693Z,61.96
2018-08-11T05:15:36.134Z,62.08
2018-08-11T05:16:35.694Z,61.72
2018-08-11T05:17:35.737Z,61.94
2018-08-11T05:18:36.064Z,61.86
2018-08-11T05:19:35.707Z,61.76
2018-08-11T05:20:35.684Z,61.6
2018-08-11T05:21:35.932Z,61.54
2018-08-11T05:22:35.665Z,61.32
2018-08-11T05:23:36.016Z,61.43
2018-08-11T05:24:35.683Z,61.51
2018-08-11T05:25:35.739Z,61.6
2018-08-11T05:26:35.830Z,61.42
2018-08-11T05:27:35.719Z,61.26
2018-08-11T05:28:35.864Z,60.91
2018-08-11T05:29:35.736Z,61.17
2018-08-11T05:30:35.722Z,61.55
2018-08-11T05:31:35.725Z,61.86
2018-08-11T05:32:35.700Z,61.57
2018-08-11T05:33:35.798Z,61.93
2018-08-11T05:34:35.716Z,62.19
2018-08-11T05:35:35.737Z,61.62
2018-08-11T05:36:35.786Z,61.87
2018-08-11T05:37:35.674Z,61.77
2018-08-11T05:38:35.708Z,61.59
2018-08-11T05:39:35.710Z,61.88
2018-08-11T05:40:35.672Z,61.93
2018-08-11T05:41:35.952Z,61.98
2018-08-11T05:42:35.695Z,61.88
2018-08-11T05:43:35.936Z,61.89
2018-08-11T05:44:35.863Z,61.94
2018-08-11T05:45:35.743Z,61.53
2018-08-11T05:46:35.712Z,61.62
2018-08-11T05:47:35.703Z,61.15
2018-08-11T05:48:35.716Z,61.2
2018-08-11T05:49:35.838Z,61.63
2018-08-11T05:50:35.750Z,61.42
2018-08-11T05:51:35.777Z,61.51
2018-08-11T05:52:35.785Z,61.85
2018-08-11T05:53:35.761Z,61.49
2018-08-11T05:54:35.910Z,60.28
2018-08-11T05:55:35.683Z,60.15
2018-08-11T05:56:35.675Z,59.67
2018-08-11T05:57:35.787Z,60.03
2018-08-11T05:58:35.667Z,59.87
2018-08-11T05:59:35.665Z,59.06
2018-08-11T06:00:35.759Z,59.11
2018-08-11T06:01:35.764Z,58.7
2018-08-11T06:02:35.657Z,58.79
2018-08-11T06:03:35.670Z,58.07
2018-08-11T06:04:35.683Z,58.14
2018-08-11T06:05:35.649Z,58.11
2018-08-11T06:06:35.678Z,57.8
2018-08-11T06:07:35.652Z,57.52
2018-08-11T06:08:35.674Z,57.14
2018-08-11T06:09:35.696Z,57.1
2018-08-11T06:10:36.147Z,57.28
2018-08-11T06:11:35.671Z,57.48
2018-08-11T06:12:35.671Z,57.32
2018-08-11T06:13:35.669Z,57.06
2018-08-11T06:14:35.692Z,57
2018-08-11T06:15:35.644Z,57.46
2018-08-11T06:16:35.682Z,57.35
2018-08-11T06:17:35.667Z,57.41
2018-08-11T06:18:35.879Z,57.23
2018-08-11T06:19:35.714Z,57.26
2018-08-11T06:20:35.646Z,57.25
2018-08-11T06:21:35.720Z,56.8
2018-08-11T06:22:35.696Z,56.88
2018-08-11T06:23:35.670Z,57.08
2018-08-11T06:24:35.885Z,57.49
2018-08-11T06:25:35.675Z,57.17
2018-08-11T06:26:35.682Z,57.29
2018-08-11T06:27:35.697Z,57.53
2018-08-11T06:28:35.676Z,57.1
2018-08-11T06:29:35.877Z,57.22
2018-08-11T06:30:35.711Z,57.33
2018-08-11T06:31:36.678Z,57.07
2018-08-11T06:32:35.684Z,56.92
2018-08-11T06:33:35.762Z,57.04
2018-08-11T06:34:35.732Z,57.18
2018-08-11T06:35:35.840Z,56.55
2018-08-11T06:36:35.710Z,56.75
2018-08-11T06:37:35.805Z,56.74
2018-08-11T06:38:35.777Z,56.63
2018-08-11T06:39:35.705Z,56.37
2018-08-11T06:40:36.055Z,56.51
2018-08-11T06:41:35.939Z,56.55
2018-08-11T06:42:35.767Z,56.76
2018-08-11T06:43:35.729Z,56.5
2018-08-11T06:44:35.698Z,56.45
2018-08-11T06:45:35.776Z,56.46
2018-08-11T06:46:35.806Z,56.32
2018-08-11T06:47:35.727Z,56.12
2018-08-11T06:48:35.668Z,56.12
2018-08-11T06:49:35.739Z,56.22
2018-08-11T06:50:35.681Z,56.22
2018-08-11T06:51:35.687Z,56
2018-08-11T06:52:35.938Z,55.74
2018-08-11T06:53:35.734Z,55.77
2018-08-11T06:54:35.743Z,55.74
2018-08-11T06:55:36.325Z,56.21
2018-08-11T06:56:35.684Z,55.55
2018-08-11T06:57:35.720Z,55.5
2018-08-11T06:58:35.780Z,55.14
2018-08-11T06:59:35.699Z,55.33
2018-08-11T07:00:35.698Z,55.32
2018-08-11T07:01:35.792Z,55.38
2018-08-11T07:02:35.671Z,55.54
2018-08-11T07:03:35.964Z,55.26
2018-08-11T07:04:35.686Z,54.47
2018-08-11T07:05:35.719Z,54.5
2018-08-11T07:06:36.112Z,54.62
2018-08-11T07:07:35.717Z,54.34
2018-08-11T07:08:35.680Z,53.96
2018-08-11T07:09:35.671Z,53.78
2018-08-11T07:10:35.860Z,53.62
2018-08-11T07:11:35.898Z,53.61
2018-08-11T07:12:35.679Z,53.7
2018-08-11T07:13:36.034Z,53.7
2018-08-11T07:14:35.676Z,54.05
2018-08-11T07:15:35.672Z,54.28
2018-08-11T07:16:35.701Z,53.69
2018-08-11T07:17:35.666Z,53.7
2018-08-11T07:18:35.690Z,53.58
2018-08-11T07:19:35.683Z,52.97
2018-08-11T07:20:35.672Z,52.05
2018-08-11T07:21:36.103Z,52.16
2018-08-11T07:22:35.659Z,52.38
2018-08-11T07:23:35.694Z,52.29
2018-08-11T07:24:35.715Z,51.34
2018-08-11T07:25:35.801Z,51.31
2018-08-11T07:26:36.282Z,51.84
2018-08-11T07:27:35.720Z,51.67
2018-08-11T07:28:35.660Z,51.12
2018-08-11T07:29:35.847Z,51.13
2018-08-11T07:30:35.688Z,51.08
2018-08-11T07:31:35.656Z,51.31
2018-08-11T07:32:35.717Z,50.83
2018-08-11T07:33:35.672Z,51.61
2018-08-11T07:34:35.713Z,51.64
2018-08-11T07:35:35.790Z,51.77
2018-08-11T07:36:36.023Z,51.34
2018-08-11T07:37:36.520Z,51.29
2018-08-11T07:38:35.954Z,51.53
2018-08-11T07:39:36.021Z,51.88
2018-08-11T07:40:36.488Z,51.61
2018-08-11T07:41:35.730Z,51.95
2018-08-11T07:42:35.702Z,51.86
2018-08-11T07:43:35.822Z,51.82
2018-08-11T07:44:35.651Z,51.49
2018-08-11T07:45:35.677Z,51.76
2018-08-11T07:46:35.671Z,52.07
2018-08-11T07:47:36.075Z,51.94
2018-08-11T07:48:36.403Z,52.18
2018-08-11T07:49:36.252Z,51.61
2018-08-11T07:50:35.858Z,51.58
2018-08-11T07:51:35.743Z,51.71
2018-08-11T07:52:35.700Z,51.85
2018-08-11T07:53:35.705Z,52.04
2018-08-11T07:54:35.788Z,52.53
2018-08-11T07:55:35.691Z,52.16
2018-08-11T07:56:35.713Z,52.02
2018-08-11T07:57:35.664Z,52.23
2018-08-11T07:58:35.757Z,52.2
2018-08-11T07:59:35.694Z,52.2
2018-08-11T08:00:35.807Z,51.94
2018-08-11T08:01:35.660Z,52.04
2018-08-11T08:02:35.757Z,52.16
2018-08-11T08:03:35.703Z,52.32
2018-08-11T08:04:35.804Z,52.35
2018-08-11T08:05:35.695Z,51.88
2018-08-11T08:06:35.784Z,52.31
2018-08-11T08:07:35.766Z,51.55
2018-08-11T08:08:35.679Z,51.85
2018-08-11T08:09:35.704Z,51.83
2018-08-11T08:10:35.675Z,51.73
2018-08-11T08:11:35.730Z,52.3
2018-08-11T08:12:35.864Z,51.85
2018-08-11T08:13:35.727Z,51.74
2018-08-11T08:14:35.828Z,52.6
2018-08-11T08:15:35.677Z,51.71
2018-08-11T08:16:35.689Z,51.46
2018-08-11T08:17:35.675Z,51.67
2018-08-11T08:18:35.684Z,51.16
2018-08-11T08:19:35.675Z,51.2
2018-08-11T08:20:35.731Z,50.62
2018-08-11T08:21:35.628Z,51.2
2018-08-11T08:22:35.984Z,50.92
2018-08-11T08:23:36.070Z,51.25
2018-08-11T08:24:35.816Z,50.53
2018-08-11T08:25:35.840Z,51.15
2018-08-11T08:26:36.510Z,50.71
2018-08-11T08:27:35.684Z,51.04
2018-08-11T08:28:35.645Z,51.02
2018-08-11T08:29:35.683Z,49.64
2018-08-11T08:30:35.684Z,50.35
2018-08-11T08:31:35.731Z,50.13
2018-08-11T08:32:35.669Z,49.52
2018-08-11T08:33:35.692Z,49.97
2018-08-11T08:34:35.636Z,49.77
2018-08-11T08:35:35.675Z,49.79
2018-08-11T08:36:36.071Z,49.29
2018-08-11T08:37:35.688Z,48.88
2018-08-11T08:38:35.694Z,49.05
2018-08-11T08:39:35.669Z,48.93
2018-08-11T08:40:35.647Z,49.13
2018-08-11T08:41:35.660Z,49.25
2018-08-11T08:42:35.692Z,49.33
2018-08-11T08:43:35.651Z,49.38
2018-08-11T08:44:35.644Z,49.92
2018-08-11T08:45:35.665Z,49.91
2018-08-11T08:46:35.658Z,49.72
2018-08-11T08:47:36.125Z,49.45
2018-08-11T08:48:35.663Z,49.29
2018-08-11T08:49:35.632Z,49.62
2018-08-11T08:50:35.872Z,49.48
2018-08-11T08:51:35.619Z,48.34
2018-08-11T08:52:35.646Z,48.92
2018-08-11T08:53:35.635Z,48.72
2018-08-11T08:54:35.703Z,48.64
2018-08-11T08:55:35.871Z,49.08
2018-08-11T08:56:35.835Z,48.83
2018-08-11T08:57:35.928Z,48.93
2018-08-11T08:58:35.655Z,49.04
2018-08-11T08:59:35.769Z,49.17
2018-08-11T09:00:36.022Z,48.97
2018-08-11T09:01:35.729Z,49.44
2018-08-11T09:02:35.708Z,49.24
2018-08-11T09:03:35.666Z,48.9
2018-08-11T09:04:35.678Z,48.76
2018-08-11T09:05:35.693Z,49.04
2018-08-11T09:06:35.654Z,48.9
2018-08-11T09:07:35.696Z,49.06
2018-08-11T09:08:35.726Z,49.2
2018-08-11T09:09:35.667Z,49.19
2018-08-11T09:10:35.794Z,49.12
2018-08-11T09:11:35.656Z,48.66
2018-08-11T09:12:35.795Z,48.28
2018-08-11T09:13:35.680Z,48.33
2018-08-11T09:14:35.708Z,48.22
2018-08-11T09:15:35.888Z,48.18
2018-08-11T09:16:35.967Z,48.31
2018-08-11T09:17:35.722Z,48.42
2018-08-11T09:18:35.786Z,48.59
2018-08-11T09:19:36.314Z,47.9
2018-08-11T09:20:36.444Z,48.12
2018-08-11T09:21:35.916Z,48.18
2018-08-11T09:22:35.657Z,48.05
2018-08-11T09:23:36.020Z,47.62
2018-08-11T09:24:35.840Z,47.73
2018-08-11T09:25:35.673Z,47.43
2018-08-11T09:26:35.824Z,47.3
2018-08-11T09:27:35.932Z,47.79
2018-08-11T09:28:35.816Z,47.82
2018-08-11T09:29:36.877Z,47.73
2018-08-11T09:30:35.896Z,47.46
2018-08-11T09:31:37.686Z,47.62
2018-08-11T09:32:35.770Z,47.37
2018-08-11T09:33:35.879Z,47.92
2018-08-11T09:34:35.790Z,47.92
2018-08-11T09:35:18.429Z,48.03
2018-08-11T09:36:18.178Z,47.49
2018-08-11T09:37:18.088Z,47.77
2018-08-11T09:38:18.345Z,47.73
2018-08-11T09:39:18.336Z,47.81
2018-08-11T09:40:18.425Z,47.59
2018-08-11T09:41:19.265Z,46.85
2018-08-11T09:42:18.106Z,46.76
2018-08-11T09:43:18.237Z,46.88
2018-08-11T09:44:18.351Z,47.05
2018-08-11T09:45:18.073Z,46.93
2018-08-11T09:46:18.360Z,46.95
2018-08-11T09:47:18.113Z,46.07
2018-08-11T09:48:18.080Z,46.7
2018-08-11T09:49:18.267Z,46.84
2018-08-11T09:50:18.170Z,46.57
2018-08-11T09:51:18.096Z,46.37
2018-08-11T09:52:18.478Z,46.34
2018-08-11T09:53:18.225Z,46.22
2018-08-11T09:54:18.123Z,46.61
2018-08-11T09:55:18.252Z,45.92
2018-08-11T09:56:18.048Z,45.84
2018-08-11T09:57:18.064Z,45.99
2018-08-11T09:58:18.133Z,46.23
2018-08-11T09:59:18.055Z,46
2018-08-11T10:00:18.070Z,45.44
2018-08-11T10:01:18.257Z,45.17
2018-08-11T10:02:18.077Z,45
2018-08-11T10:03:18.055Z,45.08
2018-08-11T10:04:18.175Z,44.85
2018-08-11T10:05:18.047Z,45.28
2018-08-11T10:06:18.041Z,45.23
2018-08-11T10:07:18.231Z,45.82
2018-08-11T10:08:18.150Z,45.42
2018-08-11T10:09:18.109Z,45.62
2018-08-11T10:10:18.151Z,45.2
2018-08-11T10:11:18.056Z,45.73
2018-08-11T10:12:18.233Z,45.41
2018-08-11T10:13:18.554Z,45.42
2018-08-11T10:14:18.060Z,45.76
2018-08-11T10:15:18.217Z,45.98
2018-08-11T10:16:18.268Z,45.7
2018-08-11T10:17:18.081Z,46.02
2018-08-11T10:18:18.133Z,45.58
2018-08-11T10:19:18.144Z,45.55
2018-08-11T10:20:18.673Z,45.5
2018-08-11T10:21:18.080Z,45.69
2018-08-11T10:22:18.229Z,44.97
2018-08-11T10:23:18.053Z,45.71
2018-08-11T10:24:18.146Z,45.28
2018-08-11T10:25:18.281Z,45.3
2018-08-11T10:26:18.054Z,44.63
2018-08-11T10:27:18.028Z,43.56
2018-08-11T10:28:18.243Z,43.75
2018-08-11T10:29:18.046Z,43.52
2018-08-11T10:30:18.459Z,44.37
2018-08-11T10:31:18.367Z,44.49
2018-08-11T10:32:18.021Z,44.41
2018-08-11T10:33:18.264Z,44.55
2018-08-11T10:34:18.180Z,44.69
2018-08-11T10:35:18.149Z,45.08
2018-08-11T10:36:18.052Z,45.18
2018-08-11T10:37:19.225Z,45.36
2018-08-11T10:38:18.362Z,45.76
2018-08-11T10:39:18.027Z,45.73
2018-08-11T10:40:18.739Z,45.73
2018-08-11T10:41:18.127Z,45.45
2018-08-11T10:42:18.042Z,45.45
2018-08-11T10:43:18.143Z,45.4
2018-08-11T10:44:18.113Z,45.27
2018-08-11T10:45:18.315Z,45.61
2018-08-11T10:46:18.383Z,45.15
2018-08-11T10:47:18.030Z,45.4
2018-08-11T10:48:18.281Z,45.5
2018-08-11T10:49:18.183Z,45.32
2018-08-11T10:50:18.048Z,45.45
2018-08-11T10:51:18.305Z,45.13
2018-08-11T10:52:18.097Z,45.38
2018-08-11T10:53:18.035Z,45.4
2018-08-11T10:54:18.078Z,45.46
2018-08-11T10:55:18.427Z,44.84
2018-08-11T10:56:18.035Z,44.98
2018-08-11T10:57:18.077Z,44.55
2018-08-11T10:58:18.747Z,44.92
2018-08-11T10:59:18.024Z,44.54
2018-08-11T11:00:18.059Z,44.24
2018-08-11T11:01:18.553Z,44.14
2018-08-11T11:02:18.275Z,43.71
2018-08-11T11:03:18.061Z,43.85
2018-08-11T11:04:18.078Z,42.94
2018-08-11T11:05:18.028Z,43.58
2018-08-11T11:06:18.044Z,43.87
2018-08-11T11:07:18.211Z,42.71
2018-08-11T11:08:18.192Z,42.74
2018-08-11T11:09:18.023Z,42.84
2018-08-11T11:10:18.133Z,42.76
2018-08-11T11:11:18.032Z,42.81
2018-08-11T11:12:18.035Z,42.66
2018-08-11T11:13:18.253Z,42.19
2018-08-11T11:14:18.233Z,42.63
2018-08-11T11:15:18.162Z,42.65
2018-08-11T11:16:18.021Z,43.01
2018-08-11T11:17:18.065Z,43.15
2018-08-11T11:18:18.019Z,42.94
2018-08-11T11:19:18.195Z,43.14
2018-08-11T11:20:18.268Z,42.87
2018-08-11T11:21:18.040Z,43.21
2018-08-11T11:22:18.102Z,43.34
2018-08-11T11:23:18.043Z,43.7
2018-08-11T11:24:18.029Z,43.57
2018-08-11T11:25:18.134Z,43.82
2018-08-11T11:26:18.300Z,43.8
2018-08-11T11:27:18.070Z,43.79
2018-08-11T11:28:18.143Z,43.92
2018-08-11T11:29:18.309Z,43.68
2018-08-11T11:30:18.038Z,43.59
2018-08-11T11:31:19.234Z,43.71
2018-08-11T11:32:18.035Z,42.94
2018-08-11T11:33:18.030Z,42.19
2018-08-11T11:34:18.091Z,41.99
2018-08-11T11:35:18.009Z,41.58
2018-08-11T11:36:18.100Z,41.02
2018-08-11T11:37:18.965Z,40.69
2018-08-11T11:38:18.054Z,40.86
2018-08-11T11:39:18.120Z,41.28
2018-08-11T11:40:18.140Z,41.71
2018-08-11T11:41:18.030Z,41.23
2018-08-11T11:42:18.092Z,41.26
2018-08-11T11:43:18.444Z,41.32
2018-08-11T11:44:18.010Z,41.49
2018-08-11T11:45:18.130Z,41.58
2018-08-11T11:46:18.178Z,40.73
2018-08-11T11:47:18.026Z,41.63
2018-08-11T11:48:18.016Z,40.61
2018-08-11T11:49:18.189Z,39.72
2018-08-11T11:50:18.028Z,39.72
2018-08-11T11:51:18.039Z,39.36
2018-08-11T11:52:18.438Z,39.45
2018-08-11T11:53:18.049Z,39.98
2018-08-11T11:54:18.061Z,39.59
2018-08-11T11:55:18.138Z,38.71
2018-08-11T11:56:18.040Z,38.72
2018-08-11T11:57:18.001Z,38.84
2018-08-11T11:58:18.162Z,38.74
2018-08-11T11:59:18.225Z,38.31
2018-08-11T12:00:18.033Z,37.74
2018-08-11T12:01:18.184Z,37.03
2018-08-11T12:02:18.081Z,37.79
2018-08-11T12:03:18.017Z,37.26
2018-08-11T12:04:18.097Z,37.15
2018-08-11T12:05:18.128Z,35.99
2018-08-11T12:06:18.043Z,36.53
2018-08-11T12:07:18.224Z,36.96
2018-08-11T12:08:18.077Z,37.82
2018-08-11T12:09:18.030Z,37.56
2018-08-11T12:10:18.243Z,36.65
2018-08-11T12:11:18.001Z,36.3
2018-08-11T12:12:18.001Z,36.49
2018-08-11T12:13:18.158Z,37.15
2018-08-11T12:14:18.033Z,36.99
2018-08-11T12:15:17.997Z,36.98
2018-08-11T12:16:18.075Z,37
2018-08-11T12:17:18.218Z,37.33
2018-08-11T12:18:18.094Z,37.4
2018-08-11T12:19:18.416Z,37.39
2018-08-11T12:20:18.043Z,37.29
2018-08-11T12:21:18.044Z,37.86
2018-08-11T12:22:18.117Z,36.25
2018-08-11T12:23:18.021Z,36.66
2018-08-11T12:24:17.985Z,37.1
2018-08-11T12:25:18.063Z,37.14
2018-08-11T12:26:18.030Z,37.54
2018-08-11T12:27:18.008Z,37.41
2018-08-11T12:28:18.164Z,36.27
2018-08-11T12:29:18.016Z,35.56
2018-08-11T12:30:18.002Z,35.89
2018-08-11T12:31:18.992Z,35.8
2018-08-11T12:32:18.052Z,35.85
2018-08-11T12:33:18.010Z,36.18
2018-08-11T12:34:18.197Z,36.31
2018-08-11T12:35:18.023Z,36.15
2018-08-11T12:36:18.047Z,35.99
2018-08-11T12:37:18.108Z,35.88
2018-08-11T12:38:17.996Z,35.97
2018-08-11T12:39:17.988Z,36.04
2018-08-11T12:40:18.147Z,35.21
2018-08-11T12:41:18.012Z,35.33
2018-08-11T12:42:17.986Z,35.62
2018-08-11T12:43:18.174Z,35.76
2018-08-11T12:44:18.034Z,36.21
2018-08-11T12:45:18.047Z,35.79
2018-08-11T12:46:18.195Z,35.95
2018-08-11T12:47:18.047Z,36.36
2018-08-11T12:48:18.031Z,36.47
2018-08-11T12:49:18.254Z,37.03
2018-08-11T12:50:18.013Z,36.65
2018-08-11T12:51:18.042Z,36.15
2018-08-11T12:52:18.124Z,35.48
2018-08-11T12:53:18.406Z,35.78
2018-08-11T12:54:18.023Z,36.14
2018-08-11T12:55:18.088Z,36.28